sensor_id;sensor_type;location;lat;lon;timestamp;temperature;humidity
963;DHT22;469;48.770;9.176;2022-12-07T01:10:34;5.00;1.00
963;DHT22;469;48.770;9.176;2022-12-07T01:13:01;4.90;1.00
963;DHT22;469;48.770;9.176;2022-12-07T01:15:27;4.90;1.00
963;DHT22;469;48.770;9.176;2022-12-07T01:17:54;4.80;1.00
963;DHT22;469;48.770;9.176;2022-12-07T01:20:21;4.90;1.00
963;DHT22;469;48.770;9.176;2022-12-07T01:22:48;4.80;1.00
963;DHT22;469;48.770;9.176;2022-12-07T01:25:15;4.80;1.00
963;DHT22;469;48.770;9.176;2022-12-07T01:27:43;4.80;1.00
963;DHT22;469;48.770;9.176;2022-12-07T01:30:11;4.80;1.00
963;DHT22;469;48.770;9.176;2022-12-07T01:32:38;4.80;1.00
963;DHT22;469;48.770;9.176;2022-12-07T01:35:05;4.80;1.00
963;DHT22;469;48.770;9.176;2022-12-07T01:37:34;4.70;1.00
963;DHT22;469;48.770;9.176;2022-12-07T01:40:03;4.70;1.00
963;DHT22;469;48.770;9.176;2022-12-07T01:42:30;4.70;1.00
963;DHT22;469;48.770;9.176;2022-12-07T01:48:02;4.70;1.00
963;DHT22;469;48.770;9.176;2022-12-07T01:50:30;4.70;1.00
963;DHT22;469;48.770;9.176;2022-12-07T01:53:00;4.70;1.00
963;DHT22;469;48.770;9.176;2022-12-07T01:55:27;4.80;1.00
963;DHT22;469;48.770;9.176;2022-12-07T01:57:55;4.80;1.00
963;DHT22;469;48.770;9.176;2022-12-07T02:00:23;4.90;1.00
963;DHT22;469;48.770;9.176;2022-12-07T02:02:53;4.90;1.00
963;DHT22;469;48.770;9.176;2022-12-07T02:05:22;4.90;1.00
963;DHT22;469;48.770;9.176;2022-12-07T02:07:49;4.90;1.00
963;DHT22;469;48.770;9.176;2022-12-07T02:10:20;4.90;1.00
963;DHT22;469;48.770;9.176;2022-12-07T02:12:50;4.90;1.00
963;DHT22;469;48.770;9.176;2022-12-07T02:15:18;4.90;1.00
963;DHT22;469;48.770;9.176;2022-12-07T02:17:51;4.90;1.00
963;DHT22;469;48.770;9.176;2022-12-07T02:20:28;5.00;1.00
963;DHT22;469;48.770;9.176;2022-12-07T02:26:23;4.90;1.00
963;DHT22;469;48.770;9.176;2022-12-07T02:29:10;4.90;1.00
963;DHT22;469;48.770;9.176;2022-12-07T02:31:40;5.00;1.00
963;DHT22;469;48.770;9.176;2022-12-07T02:34:17;5.00;1.00
963;DHT22;469;48.770;9.176;2022-12-07T02:36:51;5.10;1.00
963;DHT22;469;48.770;9.176;2022-12-07T02:39:22;5.10;1.00
963;DHT22;469;48.770;9.176;2022-12-07T02:41:54;5.00;1.00
963;DHT22;469;48.770;9.176;2022-12-07T02:44:26;5.10;1.00
963;DHT22;469;48.770;9.176;2022-12-07T02:46:55;4.90;1.00
963;DHT22;469;48.770;9.176;2022-12-07T02:49:25;5.00;1.00
963;DHT22;469;48.770;9.176;2022-12-07T02:51:53;4.90;1.00
963;DHT22;469;48.770;9.176;2022-12-07T02:54:21;4.90;1.00
963;DHT22;469;48.770;9.176;2022-12-07T02:56:50;4.90;1.00
963;DHT22;469;48.770;9.176;2022-12-07T02:59:29;4.90;1.00
963;DHT22;469;48.770;9.176;2022-12-07T03:02:06;4.90;1.00
963;DHT22;469;48.770;9.176;2022-12-07T03:04:44;4.90;1.00
963;DHT22;469;48.770;9.176;2022-12-07T03:07:21;4.90;1.00
963;DHT22;469;48.770;9.176;2022-12-07T03:09:54;4.90;1.00
963;DHT22;469;48.770;9.176;2022-12-07T03:12:27;4.90;1.00
963;DHT22;469;48.770;9.176;2022-12-07T03:15:00;4.90;1.00
963;DHT22;469;48.770;9.176;2022-12-07T03:17:30;4.90;1.00
963;DHT22;469;48.770;9.176;2022-12-07T03:20:00;4.90;1.00
963;DHT22;469;48.770;9.176;2022-12-07T03:22:30;5.00;1.00
963;DHT22;469;48.770;9.176;2022-12-07T03:24:59;5.00;1.00
963;DHT22;469;48.770;9.176;2022-12-07T03:27:30;4.90;1.00
963;DHT22;469;48.770;9.176;2022-12-07T03:30:02;4.80;1.00
963;DHT22;469;48.770;9.176;2022-12-07T03:32:32;4.70;1.00
963;DHT22;469;48.770;9.176;2022-12-07T03:35:05;4.70;1.00
963;DHT22;469;48.770;9.176;2022-12-07T03:37:38;4.70;1.00
963;DHT22;469;48.770;9.176;2022-12-07T03:40:11;4.70;1.00
963;DHT22;469;48.770;9.176;2022-12-07T03:42:39;4.70;1.00
963;DHT22;469;48.770;9.176;2022-12-07T03:45:09;4.70;1.00
963;DHT22;469;48.770;9.176;2022-12-07T03:47:44;4.60;1.00
963;DHT22;469;48.770;9.176;2022-12-07T03:50:16;4.60;1.00
963;DHT22;469;48.770;9.176;2022-12-07T03:52:48;4.60;1.00
963;DHT22;469;48.770;9.176;2022-12-07T03:55:22;4.50;1.00
963;DHT22;469;48.770;9.176;2022-12-07T03:57:54;4.50;1.00
963;DHT22;469;48.770;9.176;2022-12-07T04:00:25;4.50;1.00
963;DHT22;469;48.770;9.176;2022-12-07T04:02:53;4.50;1.00
963;DHT22;469;48.770;9.176;2022-12-07T04:05:20;4.50;1.00
963;DHT22;469;48.770;9.176;2022-12-07T04:07:47;4.40;1.00
963;DHT22;469;48.770;9.176;2022-12-07T04:10:17;4.40;1.00
963;DHT22;469;48.770;9.176;2022-12-07T04:12:44;4.40;1.00
963;DHT22;469;48.770;9.176;2022-12-07T04:15:13;4.40;1.00
963;DHT22;469;48.770;9.176;2022-12-07T04:17:42;4.40;1.00
963;DHT22;469;48.770;9.176;2022-12-07T04:20:10;4.30;1.00
963;DHT22;469;48.770;9.176;2022-12-07T04:22:37;4.20;1.00
963;DHT22;469;48.770;9.176;2022-12-07T04:25:05;4.20;1.00
963;DHT22;469;48.770;9.176;2022-12-07T04:27:32;4.20;1.00
963;DHT22;469;48.770;9.176;2022-12-07T04:29:58;4.20;1.00
963;DHT22;469;48.770;9.176;2022-12-07T04:32:25;4.20;1.00
963;DHT22;469;48.770;9.176;2022-12-07T04:34:53;4.20;1.00
963;DHT22;469;48.770;9.176;2022-12-07T04:37:20;4.20;1.00
963;DHT22;469;48.770;9.176;2022-12-07T04:39:47;4.20;1.00
963;DHT22;469;48.770;9.176;2022-12-07T04:42:15;4.20;1.00
963;DHT22;469;48.770;9.176;2022-12-07T04:44:42;4.20;1.00
963;DHT22;469;48.770;9.176;2022-12-07T04:47:10;4.20;1.00
963;DHT22;469;48.770;9.176;2022-12-07T04:49:36;4.20;1.00
963;DHT22;469;48.770;9.176;2022-12-07T04:52:05;4.20;1.00
963;DHT22;469;48.770;9.176;2022-12-07T04:54:31;4.30;1.00
963;DHT22;469;48.770;9.176;2022-12-07T04:56:58;4.30;1.00
963;DHT22;469;48.770;9.176;2022-12-07T04:59:25;4.30;1.00
963;DHT22;469;48.770;9.176;2022-12-07T05:01:52;4.20;1.00
963;DHT22;469;48.770;9.176;2022-12-07T05:04:19;4.20;1.00
963;DHT22;469;48.770;9.176;2022-12-07T05:06:46;4.20;1.00
963;DHT22;469;48.770;9.176;2022-12-07T05:09:14;4.20;1.00
963;DHT22;469;48.770;9.176;2022-12-07T05:11:41;4.40;1.00
963;DHT22;469;48.770;9.176;2022-12-07T05:14:12;4.40;1.00
963;DHT22;469;48.770;9.176;2022-12-07T05:16:41;4.40;1.00
963;DHT22;469;48.770;9.176;2022-12-07T05:19:08;4.40;1.00
963;DHT22;469;48.770;9.176;2022-12-07T05:21:36;4.40;1.00
963;DHT22;469;48.770;9.176;2022-12-07T05:24:06;4.40;1.00
963;DHT22;469;48.770;9.176;2022-12-07T05:26:35;4.40;1.00
963;DHT22;469;48.770;9.176;2022-12-07T05:29:03;4.40;1.00
963;DHT22;469;48.770;9.176;2022-12-07T05:31:30;4.40;1.00
963;DHT22;469;48.770;9.176;2022-12-07T05:34:00;4.30;1.00
963;DHT22;469;48.770;9.176;2022-12-07T05:36:28;4.30;1.00
963;DHT22;469;48.770;9.176;2022-12-07T05:38:56;4.20;1.00
963;DHT22;469;48.770;9.176;2022-12-07T05:41:26;4.10;1.00
963;DHT22;469;48.770;9.176;2022-12-07T05:44:11;4.00;1.00
963;DHT22;469;48.770;9.176;2022-12-07T05:46:38;3.90;1.00
963;DHT22;469;48.770;9.176;2022-12-07T05:49:05;3.90;1.00
963;DHT22;469;48.770;9.176;2022-12-07T05:51:32;3.90;1.00
963;DHT22;469;48.770;9.176;2022-12-07T05:53:59;3.90;1.00
963;DHT22;469;48.770;9.176;2022-12-07T05:56:25;3.90;1.00
963;DHT22;469;48.770;9.176;2022-12-07T05:58:53;3.90;1.00
963;DHT22;469;48.770;9.176;2022-12-07T06:01:39;3.90;1.00
963;DHT22;469;48.770;9.176;2022-12-07T06:04:06;3.90;1.00
963;DHT22;469;48.770;9.176;2022-12-07T06:06:33;4.10;1.00
963;DHT22;469;48.770;9.176;2022-12-07T06:09:04;4.10;1.00
963;DHT22;469;48.770;9.176;2022-12-07T06:11:31;4.10;1.00
963;DHT22;469;48.770;9.176;2022-12-07T06:14:18;2.50;1.00
963;DHT22;469;48.770;9.176;2022-12-07T06:16:46;4.10;1.00
963;DHT22;469;48.770;9.176;2022-12-07T06:19:13;4.20;1.00
963;DHT22;469;48.770;9.176;2022-12-07T06:21:40;4.30;1.00
963;DHT22;469;48.770;9.176;2022-12-07T06:24:10;4.40;1.00
963;DHT22;469;48.770;9.176;2022-12-07T06:26:38;4.50;1.00
963;DHT22;469;48.770;9.176;2022-12-07T06:29:04;4.50;1.00
963;DHT22;469;48.770;9.176;2022-12-07T06:31:33;4.60;1.00
963;DHT22;469;48.770;9.176;2022-12-07T06:34:03;4.60;1.00
963;DHT22;469;48.770;9.176;2022-12-07T06:36:32;4.60;1.00
963;DHT22;469;48.770;9.176;2022-12-07T06:38:58;4.60;1.00
963;DHT22;469;48.770;9.176;2022-12-07T06:41:25;4.60;1.00
963;DHT22;469;48.770;9.176;2022-12-07T06:43:52;4.60;1.00
963;DHT22;469;48.770;9.176;2022-12-07T06:46:19;4.60;1.00
963;DHT22;469;48.770;9.176;2022-12-07T06:48:46;4.70;1.00
963;DHT22;469;48.770;9.176;2022-12-07T06:51:14;4.70;1.00
963;DHT22;469;48.770;9.176;2022-12-07T06:53:41;4.60;1.00
963;DHT22;469;48.770;9.176;2022-12-07T06:56:08;4.60;1.00
963;DHT22;469;48.770;9.176;2022-12-07T06:58:35;4.60;1.00
963;DHT22;469;48.770;9.176;2022-12-07T07:01:02;4.60;1.00
963;DHT22;469;48.770;9.176;2022-12-07T07:03:29;4.50;1.00
963;DHT22;469;48.770;9.176;2022-12-07T07:05:56;4.40;1.00
963;DHT22;469;48.770;9.176;2022-12-07T07:08:24;4.40;1.00
963;DHT22;469;48.770;9.176;2022-12-07T07:58:31;4.70;1.00
963;DHT22;469;48.770;9.176;2022-12-07T08:02:10;4.70;1.00
963;DHT22;469;48.770;9.176;2022-12-07T08:44:28;5.20;1.00
963;DHT22;469;48.770;9.176;2022-12-07T08:47:55;5.20;1.00
963;DHT22;469;48.770;9.176;2022-12-07T08:53:44;5.20;1.00
963;DHT22;469;48.770;9.176;2022-12-07T08:56:50;5.30;1.00
963;DHT22;469;48.770;9.176;2022-12-07T09:45:15;6.50;1.00
963;DHT22;469;48.770;9.176;2022-12-07T09:47:42;6.60;1.00
963;DHT22;469;48.770;9.176;2022-12-07T09:50:35;6.70;1.00
963;DHT22;469;48.770;9.176;2022-12-07T09:53:34;6.70;1.00
963;DHT22;469;48.770;9.176;2022-12-07T09:56:20;6.70;1.00
963;DHT22;469;48.770;9.176;2022-12-07T09:59:16;6.80;1.00
963;DHT22;469;48.770;9.176;2022-12-07T10:04:56;6.60;1.00
963;DHT22;469;48.770;9.176;2022-12-07T10:07:33;6.60;1.00
963;DHT22;469;48.770;9.176;2022-12-07T10:10:22;6.60;1.00
963;DHT22;469;48.770;9.176;2022-12-07T10:12:58;6.70;1.00
963;DHT22;469;48.770;9.176;2022-12-07T10:15:47;6.70;1.00
963;DHT22;469;48.770;9.176;2022-12-07T10:18:25;6.50;1.00
963;DHT22;469;48.770;9.176;2022-12-07T10:21:04;6.70;1.00
963;DHT22;469;48.770;9.176;2022-12-07T10:23:35;6.90;1.00
963;DHT22;469;48.770;9.176;2022-12-07T10:26:27;7.00;1.00
963;DHT22;469;48.770;9.176;2022-12-07T10:28:58;7.10;1.00
963;DHT22;469;48.770;9.176;2022-12-07T10:31:25;7.00;1.00
963;DHT22;469;48.770;9.176;2022-12-07T10:33:57;7.00;1.00
963;DHT22;469;48.770;9.176;2022-12-07T10:36:42;7.10;1.00
963;DHT22;469;48.770;9.176;2022-12-07T10:39:19;7.20;1.00
963;DHT22;469;48.770;9.176;2022-12-07T10:41:57;7.40;1.00
963;DHT22;469;48.770;9.176;2022-12-07T10:44:26;7.40;1.00
963;DHT22;469;48.770;9.176;2022-12-07T10:47:16;7.50;1.00
963;DHT22;469;48.770;9.176;2022-12-07T10:53:21;7.80;1.00
963;DHT22;469;48.770;9.176;2022-12-07T10:59:10;7.20;1.00
963;DHT22;469;48.770;9.176;2022-12-07T11:01:50;7.10;1.00
963;DHT22;469;48.770;9.176;2022-12-07T11:04:24;7.40;1.00
963;DHT22;469;48.770;9.176;2022-12-07T11:07:04;7.00;1.00
963;DHT22;469;48.770;9.176;2022-12-07T11:09:52;6.80;1.00
963;DHT22;469;48.770;9.176;2022-12-07T11:12:35;6.80;1.00
963;DHT22;469;48.770;9.176;2022-12-07T11:15:15;6.90;1.00
963;DHT22;469;48.770;9.176;2022-12-07T11:17:51;7.00;1.00
963;DHT22;469;48.770;9.176;2022-12-07T11:20:35;7.10;1.00
963;DHT22;469;48.770;9.176;2022-12-07T11:23:15;6.90;1.00
963;DHT22;469;48.770;9.176;2022-12-07T11:25:53;7.00;1.00
963;DHT22;469;48.770;9.176;2022-12-07T11:28:33;7.10;1.00
963;DHT22;469;48.770;9.176;2022-12-07T11:31:12;6.90;1.00
963;DHT22;469;48.770;9.176;2022-12-07T11:33:44;6.90;1.00
963;DHT22;469;48.770;9.176;2022-12-07T11:36:33;6.90;1.00
963;DHT22;469;48.770;9.176;2022-12-07T11:39:04;7.00;1.00
963;DHT22;469;48.770;9.176;2022-12-07T11:41:41;7.00;1.00
963;DHT22;469;48.770;9.176;2022-12-07T11:44:25;6.50;1.00
963;DHT22;469;48.770;9.176;2022-12-07T11:47:26;7.10;1.00
963;DHT22;469;48.770;9.176;2022-12-07T11:50:10;7.20;1.00
963;DHT22;469;48.770;9.176;2022-12-07T11:52:57;7.20;1.00
963;DHT22;469;48.770;9.176;2022-12-07T11:55:30;7.10;1.00
963;DHT22;469;48.770;9.176;2022-12-07T11:58:05;7.10;1.00
963;DHT22;469;48.770;9.176;2022-12-07T12:00:39;7.00;1.00
963;DHT22;469;48.770;9.176;2022-12-07T12:03:12;6.90;1.00
963;DHT22;469;48.770;9.176;2022-12-07T12:05:42;6.80;1.00
963;DHT22;469;48.770;9.176;2022-12-07T12:08:16;6.90;1.00
963;DHT22;469;48.770;9.176;2022-12-07T12:10:55;6.80;1.00
963;DHT22;469;48.770;9.176;2022-12-07T12:13:56;6.80;1.00
963;DHT22;469;48.770;9.176;2022-12-07T12:16:58;6.60;1.00
963;DHT22;469;48.770;9.176;2022-12-07T12:19:34;6.20;1.00
963;DHT22;469;48.770;9.176;2022-12-07T12:22:10;6.10;1.00
963;DHT22;469;48.770;9.176;2022-12-07T12:24:47;6.00;1.00
963;DHT22;469;48.770;9.176;2022-12-07T12:27:25;6.00;1.00
963;DHT22;469;48.770;9.176;2022-12-07T12:33:05;6.20;1.00
963;DHT22;469;48.770;9.176;2022-12-07T12:35:42;6.00;1.00
963;DHT22;469;48.770;9.176;2022-12-07T12:38:30;6.00;1.00
963;DHT22;469;48.770;9.176;2022-12-07T12:41:01;5.90;1.00
963;DHT22;469;48.770;9.176;2022-12-07T12:43:51;6.00;1.00
963;DHT22;469;48.770;9.176;2022-12-07T12:46:50;6.00;1.00
963;DHT22;469;48.770;9.176;2022-12-07T12:49:35;6.10;1.00
963;DHT22;469;48.770;9.176;2022-12-07T12:55:50;6.10;1.00
963;DHT22;469;48.770;9.176;2022-12-07T12:58:36;6.10;1.00
963;DHT22;469;48.770;9.176;2022-12-07T13:01:33;6.20;1.00
963;DHT22;469;48.770;9.176;2022-12-07T13:04:18;6.20;1.00
963;DHT22;469;48.770;9.176;2022-12-07T13:06:52;6.30;1.00
963;DHT22;469;48.770;9.176;2022-12-07T13:09:24;6.50;1.00
963;DHT22;469;48.770;9.176;2022-12-07T13:11:58;6.60;1.00
963;DHT22;469;48.770;9.176;2022-12-07T13:14:56;6.70;1.00
963;DHT22;469;48.770;9.176;2022-12-07T13:20:50;6.50;1.00
963;DHT22;469;48.770;9.176;2022-12-07T13:23:24;6.60;1.00
963;DHT22;469;48.770;9.176;2022-12-07T13:25:58;6.70;1.00
963;DHT22;469;48.770;9.176;2022-12-07T13:28:33;6.70;1.00
963;DHT22;469;48.770;9.176;2022-12-07T13:31:32;6.60;1.00
963;DHT22;469;48.770;9.176;2022-12-07T13:34:02;6.60;1.00
963;DHT22;469;48.770;9.176;2022-12-07T13:36:36;6.60;1.00
963;DHT22;469;48.770;9.176;2022-12-07T13:39:18;6.40;1.00
963;DHT22;469;48.770;9.176;2022-12-07T13:41:51;6.30;1.00
963;DHT22;469;48.770;9.176;2022-12-07T13:54:24;6.30;1.00
963;DHT22;469;48.770;9.176;2022-12-07T13:59:54;6.30;1.00
963;DHT22;469;48.770;9.176;2022-12-07T14:00:21;6.30;1.00
963;DHT22;469;48.770;9.176;2022-12-07T14:06:55;6.30;1.00
963;DHT22;469;48.770;9.176;2022-12-07T14:12:35;6.30;1.00
963;DHT22;469;48.770;9.176;2022-12-07T14:15:28;6.40;1.00
963;DHT22;469;48.770;9.176;2022-12-07T14:18:02;6.50;1.00
963;DHT22;469;48.770;9.176;2022-12-07T14:20:33;6.40;1.00
963;DHT22;469;48.770;9.176;2022-12-07T14:23:32;6.30;1.00
963;DHT22;469;48.770;9.176;2022-12-07T14:26:11;6.30;1.00
963;DHT22;469;48.770;9.176;2022-12-07T14:28:43;6.30;1.00
963;DHT22;469;48.770;9.176;2022-12-07T14:31:30;6.30;1.00
963;DHT22;469;48.770;9.176;2022-12-07T14:38:00;6.30;1.00
963;DHT22;469;48.770;9.176;2022-12-07T14:44:41;6.40;1.00
963;DHT22;469;48.770;9.176;2022-12-07T15:09:04;6.20;1.00
963;DHT22;469;48.770;9.176;2022-12-07T15:12:02;6.10;1.00
963;DHT22;469;48.770;9.176;2022-12-07T15:15:21;6.00;1.00
963;DHT22;469;48.770;9.176;2022-12-07T15:18:16;5.90;1.00
963;DHT22;469;48.770;9.176;2022-12-07T15:24:05;5.80;1.00
963;DHT22;469;48.770;9.176;2022-12-07T15:27:12;5.70;1.00
963;DHT22;469;48.770;9.176;2022-12-07T15:29:50;5.60;1.00
963;DHT22;469;48.770;9.176;2022-12-07T15:32:31;5.60;1.00
963;DHT22;469;48.770;9.176;2022-12-07T15:34:58;5.60;1.00
963;DHT22;469;48.770;9.176;2022-12-07T15:37:32;5.60;1.00
963;DHT22;469;48.770;9.176;2022-12-07T15:40:15;5.60;1.00
963;DHT22;469;48.770;9.176;2022-12-07T15:45:57;5.70;1.00
963;DHT22;469;48.770;9.176;2022-12-07T15:49:11;5.60;1.00
963;DHT22;469;48.770;9.176;2022-12-07T15:52:21;5.50;1.00
963;DHT22;469;48.770;9.176;2022-12-07T16:21:36;5.20;1.00
963;DHT22;469;48.770;9.176;2022-12-07T16:24:41;5.10;1.00
963;DHT22;469;48.770;9.176;2022-12-07T16:32:09;5.00;1.00
963;DHT22;469;48.770;9.176;2022-12-07T16:47:42;4.90;1.00
963;DHT22;469;48.770;9.176;2022-12-07T16:55:19;4.60;1.00
963;DHT22;469;48.770;9.176;2022-12-07T18:47:30;4.90;1.00
963;DHT22;469;48.770;9.176;2022-12-07T18:48:36;4.90;1.00
963;DHT22;469;48.770;9.176;2022-12-07T18:51:20;4.90;1.00
963;DHT22;469;48.770;9.176;2022-12-07T18:53:47;5.00;1.00
963;DHT22;469;48.770;9.176;2022-12-07T18:56:15;5.10;1.00
963;DHT22;469;48.770;9.176;2022-12-07T18:58:48;5.10;1.00
963;DHT22;469;48.770;9.176;2022-12-07T19:01:33;5.00;1.00
963;DHT22;469;48.770;9.176;2022-12-07T19:04:01;4.90;1.00
963;DHT22;469;48.770;9.176;2022-12-07T19:06:29;5.00;1.00
963;DHT22;469;48.770;9.176;2022-12-07T19:08:57;4.90;1.00
963;DHT22;469;48.770;9.176;2022-12-07T19:11:26;5.00;1.00
963;DHT22;469;48.770;9.176;2022-12-07T19:14:15;4.90;1.00
963;DHT22;469;48.770;9.176;2022-12-07T19:16:47;4.90;1.00
963;DHT22;469;48.770;9.176;2022-12-07T19:19:18;4.90;1.00
963;DHT22;469;48.770;9.176;2022-12-07T19:21:49;4.90;1.00
963;DHT22;469;48.770;9.176;2022-12-07T19:24:17;4.90;1.00
963;DHT22;469;48.770;9.176;2022-12-07T19:26:51;4.90;1.00
963;DHT22;469;48.770;9.176;2022-12-07T19:29:26;5.00;1.00
963;DHT22;469;48.770;9.176;2022-12-07T19:31:55;5.00;1.00
963;DHT22;469;48.770;9.176;2022-12-07T19:34:22;5.00;1.00
963;DHT22;469;48.770;9.176;2022-12-07T19:36:50;5.00;1.00
963;DHT22;469;48.770;9.176;2022-12-07T19:39:22;5.00;1.00
963;DHT22;469;48.770;9.176;2022-12-07T19:41:49;4.90;1.00
963;DHT22;469;48.770;9.176;2022-12-07T19:44:18;4.90;1.00
963;DHT22;469;48.770;9.176;2022-12-07T19:46:52;4.80;1.00
963;DHT22;469;48.770;9.176;2022-12-07T19:49:27;4.80;1.00
963;DHT22;469;48.770;9.176;2022-12-07T19:51:55;4.80;1.00
963;DHT22;469;48.770;9.176;2022-12-07T19:54:25;4.80;1.00
963;DHT22;469;48.770;9.176;2022-12-07T19:56:54;4.80;1.00
963;DHT22;469;48.770;9.176;2022-12-07T19:59:22;4.80;1.00
963;DHT22;469;48.770;9.176;2022-12-07T20:01:51;4.90;1.00
963;DHT22;469;48.770;9.176;2022-12-07T20:04:23;4.90;1.00
963;DHT22;469;48.770;9.176;2022-12-07T20:06:52;4.80;1.00
963;DHT22;469;48.770;9.176;2022-12-07T20:09:21;4.90;1.00
963;DHT22;469;48.770;9.176;2022-12-07T20:11:50;4.90;1.00
963;DHT22;469;48.770;9.176;2022-12-07T20:14:56;4.90;1.00
963;DHT22;469;48.770;9.176;2022-12-07T20:17:32;4.80;1.00
963;DHT22;469;48.770;9.176;2022-12-07T20:20:03;4.80;1.00
963;DHT22;469;48.770;9.176;2022-12-07T20:22:32;4.80;1.00
963;DHT22;469;48.770;9.176;2022-12-07T20:24:59;4.90;1.00
963;DHT22;469;48.770;9.176;2022-12-07T20:27:29;4.90;1.00
963;DHT22;469;48.770;9.176;2022-12-07T20:29:56;4.90;1.00
963;DHT22;469;48.770;9.176;2022-12-07T20:32:25;4.90;1.00
963;DHT22;469;48.770;9.176;2022-12-07T20:34:53;4.90;1.00
963;DHT22;469;48.770;9.176;2022-12-07T20:37:20;5.00;1.00
963;DHT22;469;48.770;9.176;2022-12-07T20:39:50;5.20;1.00
963;DHT22;469;48.770;9.176;2022-12-07T20:42:17;4.90;1.00
963;DHT22;469;48.770;9.176;2022-12-07T20:45:03;4.90;1.00
963;DHT22;469;48.770;9.176;2022-12-07T20:47:34;5.00;1.00
963;DHT22;469;48.770;9.176;2022-12-07T20:50:04;5.00;1.00
963;DHT22;469;48.770;9.176;2022-12-07T20:52:31;4.90;1.00
963;DHT22;469;48.770;9.176;2022-12-07T20:55:01;4.80;1.00
963;DHT22;469;48.770;9.176;2022-12-07T20:57:34;4.80;1.00
963;DHT22;469;48.770;9.176;2022-12-07T21:00:05;4.80;1.00
963;DHT22;469;48.770;9.176;2022-12-07T21:02:40;4.80;1.00
963;DHT22;469;48.770;9.176;2022-12-07T21:05:09;4.80;1.00
963;DHT22;469;48.770;9.176;2022-12-07T21:07:38;4.60;1.00
963;DHT22;469;48.770;9.176;2022-12-07T21:10:08;4.70;1.00
963;DHT22;469;48.770;9.176;2022-12-07T21:12:38;4.70;1.00
963;DHT22;469;48.770;9.176;2022-12-07T21:15:16;4.80;1.00
963;DHT22;469;48.770;9.176;2022-12-07T21:17:51;4.90;1.00
963;DHT22;469;48.770;9.176;2022-12-07T21:20:30;4.80;1.00
963;DHT22;469;48.770;9.176;2022-12-07T21:23:13;4.80;1.00
963;DHT22;469;48.770;9.176;2022-12-07T21:25:42;4.80;1.00
963;DHT22;469;48.770;9.176;2022-12-07T21:28:26;4.80;1.00
963;DHT22;469;48.770;9.176;2022-12-07T21:31:05;4.80;1.00
963;DHT22;469;48.770;9.176;2022-12-07T21:33:38;4.90;1.00
963;DHT22;469;48.770;9.176;2022-12-07T21:36:26;4.90;1.00
963;DHT22;469;48.770;9.176;2022-12-07T21:39:29;5.00;1.00
963;DHT22;469;48.770;9.176;2022-12-07T21:42:14;5.00;1.00
963;DHT22;469;48.770;9.176;2022-12-07T21:45:14;5.00;1.00
963;DHT22;469;48.770;9.176;2022-12-07T21:47:54;5.00;1.00
963;DHT22;469;48.770;9.176;2022-12-07T21:50:23;4.90;1.00
963;DHT22;469;48.770;9.176;2022-12-07T21:53:25;4.80;1.00
963;DHT22;469;48.770;9.176;2022-12-07T21:56:07;4.60;1.00
963;DHT22;469;48.770;9.176;2022-12-07T21:59:05;4.50;1.00
963;DHT22;469;48.770;9.176;2022-12-07T22:02:13;4.40;1.00
963;DHT22;469;48.770;9.176;2022-12-07T22:05:12;4.20;1.00
963;DHT22;469;48.770;9.176;2022-12-07T22:08:08;4.20;1.00
963;DHT22;469;48.770;9.176;2022-12-07T22:11:05;4.10;1.00
963;DHT22;469;48.770;9.176;2022-12-07T22:13:43;4.10;1.00
963;DHT22;469;48.770;9.176;2022-12-07T22:16:36;4.00;1.00
963;DHT22;469;48.770;9.176;2022-12-07T22:19:12;3.90;1.00
963;DHT22;469;48.770;9.176;2022-12-07T22:21:48;3.80;1.00
963;DHT22;469;48.770;9.176;2022-12-07T22:24:28;3.80;1.00
963;DHT22;469;48.770;9.176;2022-12-07T22:27:32;3.80;1.00
963;DHT22;469;48.770;9.176;2022-12-07T22:30:21;3.80;1.00
963;DHT22;469;48.770;9.176;2022-12-07T22:33:05;3.70;1.00
963;DHT22;469;48.770;9.176;2022-12-07T22:35:51;3.70;1.00
963;DHT22;469;48.770;9.176;2022-12-07T22:38:18;3.70;1.00
963;DHT22;469;48.770;9.176;2022-12-07T22:40:45;3.70;1.00
963;DHT22;469;48.770;9.176;2022-12-07T22:43:17;3.70;1.00
963;DHT22;469;48.770;9.176;2022-12-07T22:45:53;3.70;1.00
963;DHT22;469;48.770;9.176;2022-12-07T22:48:28;3.70;1.00
963;DHT22;469;48.770;9.176;2022-12-07T22:51:02;3.70;1.00
963;DHT22;469;48.770;9.176;2022-12-07T22:53:31;3.60;1.00
963;DHT22;469;48.770;9.176;2022-12-07T22:56:03;3.60;1.00
963;DHT22;469;48.770;9.176;2022-12-07T22:58:56;3.60;1.00
963;DHT22;469;48.770;9.176;2022-12-07T23:01:30;3.50;1.00
963;DHT22;469;48.770;9.176;2022-12-07T23:04:03;3.50;1.00
963;DHT22;469;48.770;9.176;2022-12-07T23:06:35;3.50;1.00
963;DHT22;469;48.770;9.176;2022-12-07T23:09:07;3.40;1.00
963;DHT22;469;48.770;9.176;2022-12-07T23:11:56;3.30;1.00
963;DHT22;469;48.770;9.176;2022-12-07T23:14:48;3.20;1.00
963;DHT22;469;48.770;9.176;2022-12-07T23:17:24;3.10;1.00
963;DHT22;469;48.770;9.176;2022-12-07T23:19:51;3.00;1.00
963;DHT22;469;48.770;9.176;2022-12-07T23:22:27;3.00;1.00
963;DHT22;469;48.770;9.176;2022-12-07T23:25:04;3.00;1.00
963;DHT22;469;48.770;9.176;2022-12-07T23:27:33;2.90;1.00
963;DHT22;469;48.770;9.176;2022-12-07T23:30:14;2.90;1.00
963;DHT22;469;48.770;9.176;2022-12-07T23:32:46;2.80;1.00
963;DHT22;469;48.770;9.176;2022-12-07T23:35:22;2.80;1.00
963;DHT22;469;48.770;9.176;2022-12-07T23:37:51;2.90;1.00
963;DHT22;469;48.770;9.176;2022-12-07T23:40:29;3.00;1.00
963;DHT22;469;48.770;9.176;2022-12-07T23:42:58;3.10;1.00
963;DHT22;469;48.770;9.176;2022-12-07T23:45:52;3.20;1.00
963;DHT22;469;48.770;9.176;2022-12-07T23:48:22;3.20;1.00
963;DHT22;469;48.770;9.176;2022-12-07T23:51:06;3.20;1.00
963;DHT22;469;48.770;9.176;2022-12-07T23:54:08;3.30;1.00
963;DHT22;469;48.770;9.176;2022-12-07T23:56:41;3.30;1.00
963;DHT22;469;48.770;9.176;2022-12-07T23:59:20;3.30;1.00
